createdAt,value
2023-02-28T00:00:17.693Z,101815.75
2023-02-28T00:02:45.441Z,101815.59
2023-02-28T00:05:13.326Z,101811.66
2023-02-28T00:07:43.166Z,101811.91
2023-02-28T00:10:11.346Z,101813.03
2023-02-28T00:12:39.122Z,101816.34
2023-02-28T00:15:07.874Z,101813.75
2023-02-28T00:17:37.479Z,101808.19
2023-02-28T00:20:05.553Z,101808.94
2023-02-28T00:22:33.561Z,101813.75
2023-02-28T00:25:01.371Z,101810.06
2023-02-28T00:27:29.475Z,101810.19
2023-02-28T00:29:57.214Z,101802.31
2023-02-28T00:32:25.208Z,101806.72
2023-02-28T00:34:52.982Z,101810.44
2023-02-28T00:37:22.044Z,101799.59
2023-02-28T00:39:50.214Z,101806.88
2023-02-28T00:42:17.996Z,101804.28
2023-02-28T00:44:45.909Z,101805.28
2023-02-28T00:47:13.660Z,101808.88
2023-02-28T00:49:41.772Z,101807.28
2023-02-28T00:52:11.360Z,101807.28
2023-02-28T00:54:40.945Z,101807.16
2023-02-28T00:57:10.615Z,101804.56
2023-02-28T00:59:39.061Z,101806.31
2023-02-28T01:02:07.343Z,101808.13
2023-02-28T01:04:35.184Z,101811.72
2023-02-28T01:07:02.909Z,101803.72
2023-02-28T01:09:30.980Z,101807.41
2023-02-28T01:11:58.769Z,101809.97
2023-02-28T01:14:28.307Z,101807.53
2023-02-28T01:16:56.147Z,101807.66
2023-02-28T01:19:24.777Z,101800.91
2023-02-28T01:21:53.388Z,101800.31
2023-02-28T01:24:21.861Z,101800.06
2023-02-28T01:26:49.578Z,101800.78
2023-02-28T01:29:17.334Z,101800.66
2023-02-28T01:31:45.272Z,101801.66
2023-02-28T01:34:13.363Z,101808.94
2023-02-28T01:36:41.140Z,101803.50
2023-02-28T01:39:09.315Z,101799.06
2023-02-28T01:41:38.016Z,101800.19
2023-02-28T01:44:05.950Z,101789.31
2023-02-28T01:46:33.836Z,101789.47
2023-02-28T01:49:01.814Z,101786.75
2023-02-28T01:51:30.125Z,101788.84
2023-02-28T01:53:58.106Z,101789.31
2023-02-28T01:56:26.745Z,101786.50
2023-02-28T01:58:54.633Z,101787.03
2023-02-28T02:01:23.926Z,101785.91
2023-02-28T02:03:56.184Z,101792.03
2023-02-28T02:06:28.186Z,101783.78
2023-02-28T02:08:55.934Z,101776.78
2023-02-28T02:11:23.800Z,101780.47
2023-02-28T02:13:53.846Z,101782.59
2023-02-28T02:16:22.774Z,101777.03
2023-02-28T02:18:51.016Z,101781.19
2023-02-28T02:21:19.089Z,101776.88
2023-02-28T02:23:46.887Z,101774.31
2023-02-28T02:26:14.650Z,101776.19
2023-02-28T02:28:42.699Z,101767.78
2023-02-28T02:31:10.602Z,101762.75
2023-02-28T02:33:39.516Z,101767.44
2023-02-28T02:36:10.384Z,101758.97
2023-02-28T02:38:38.790Z,101773.84
2023-02-28T02:41:08.370Z,101759.28
2023-02-28T02:43:36.143Z,101767.59
2023-02-28T02:46:03.933Z,101766.69
2023-02-28T02:48:31.720Z,101772.00
2023-02-28T02:50:59.484Z,101772.13
2023-02-28T02:53:28.666Z,101775.84
2023-02-28T02:55:56.400Z,101776.41
2023-02-28T02:58:24.299Z,101774.84
2023-02-28T03:00:52.030Z,101770.69
2023-02-28T03:03:21.744Z,101778.34
2023-02-28T03:05:49.596Z,101775.09
2023-02-28T03:08:17.320Z,101770.69
2023-02-28T03:10:45.364Z,101777.81
2023-02-28T03:13:13.560Z,101786.94
2023-02-28T03:15:41.449Z,101778.06
2023-02-28T03:18:11.496Z,101779.19
2023-02-28T03:20:39.636Z,101778.22
2023-02-28T03:23:08.715Z,101784.50
2023-02-28T03:25:39.475Z,101784.78
2023-02-28T03:28:07.242Z,101780.06
2023-02-28T03:30:35.228Z,101791.16
2023-02-28T03:33:03.214Z,101787.72
2023-02-28T03:35:31.012Z,101788.59
2023-02-28T03:37:58.793Z,101789.47
2023-02-28T03:40:26.679Z,101789.72
2023-02-28T03:42:54.594Z,101785.53
2023-02-28T03:45:23.517Z,101782.19
2023-02-28T03:47:51.624Z,101788.44
2023-02-28T03:50:19.521Z,101770.47
2023-02-28T03:52:47.341Z,101782.28
2023-02-28T03:55:15.300Z,101788.84
2023-02-28T03:57:43.073Z,101786.28
2023-02-28T04:00:10.837Z,101784.53
2023-02-28T04:02:41.185Z,101787.50
2023-02-28T04:05:08.959Z,101786.53
2023-02-28T04:07:37.759Z,101786.53
2023-02-28T04:10:06.061Z,101789.25
2023-02-28T04:12:33.944Z,101786.75
2023-02-28T04:15:01.722Z,101785.78
2023-02-28T04:17:29.523Z,101788.50
2023-02-28T04:19:58.528Z,101787.66
2023-02-28T04:22:28.031Z,101795.78
2023-02-28T04:24:55.849Z,101791.34
2023-02-28T04:27:25.389Z,101796.75
2023-02-28T04:29:53.348Z,101803.03
2023-02-28T04:32:21.208Z,101803.03
2023-02-28T04:34:49.031Z,101810.19
2023-02-28T04:37:17.081Z,101807.47
2023-02-28T04:39:44.985Z,101811.03
2023-02-28T04:42:12.825Z,101794.91
2023-02-28T04:44:40.969Z,101811.03
2023-02-28T04:47:08.784Z,101809.94
2023-02-28T04:49:36.701Z,101800.09
2023-02-28T04:52:04.543Z,101809.06
2023-02-28T04:54:32.281Z,101808.94
2023-02-28T04:57:00.130Z,101804.63
2023-02-28T04:59:27.973Z,101806.63
2023-02-28T05:01:56.721Z,101811.03
2023-02-28T05:04:24.501Z,101808.72
2023-02-28T05:06:52.313Z,101797.88
2023-02-28T05:09:20.096Z,101801.44
2023-02-28T05:11:48.051Z,101808.72
2023-02-28T05:14:15.785Z,101813.66
2023-02-28T05:16:43.826Z,101809.66
2023-02-28T05:19:11.684Z,101814.88
2023-02-28T05:21:39.817Z,101820.41
2023-02-28T05:24:08.661Z,101821.31
2023-02-28T05:26:37.048Z,101818.59
2023-02-28T05:29:04.812Z,101819.28
2023-02-28T05:31:34.367Z,101817.31
2023-02-28T05:34:02.230Z,101818.44
2023-02-28T05:36:29.993Z,101822.25
2023-02-28T05:38:57.795Z,101820.78
2023-02-28T05:41:25.751Z,101825.56
2023-02-28T05:43:53.490Z,101828.16
2023-02-28T05:46:21.291Z,101826.88
2023-02-28T05:51:23.284Z,101832.56
2023-02-28T05:53:51.095Z,101834.53
2023-02-28T05:56:19.439Z,101839.16
2023-02-28T05:58:48.088Z,101841.25
2023-02-28T06:01:16.014Z,101840.38
2023-02-28T06:03:43.829Z,101836.09
2023-02-28T06:06:11.741Z,101847.94
2023-02-28T06:08:39.461Z,101847.19
2023-02-28T06:11:08.062Z,101851.13
2023-02-28T06:13:35.992Z,101849.41
2023-02-28T06:16:03.810Z,101861.09
2023-02-28T06:18:31.702Z,101865.41
2023-02-28T06:20:59.614Z,101861.84
2023-02-28T06:23:27.705Z,101858.13
2023-02-28T06:25:59.202Z,101868.13
2023-02-28T06:28:27.351Z,101871.09
2023-02-28T06:30:55.276Z,101878.63
2023-02-28T06:33:23.151Z,101881.19
2023-02-28T06:35:51.087Z,101877.03
2023-02-28T06:38:19.424Z,101876.88
2023-02-28T06:40:47.294Z,101883.16
2023-02-28T06:43:16.650Z,101884.66
2023-02-28T06:45:44.556Z,101893.03
2023-02-28T06:48:12.656Z,101893.78
2023-02-28T06:50:40.554Z,101897.59
2023-02-28T06:53:08.477Z,101888.34
2023-02-28T06:55:36.387Z,101894.88
2023-02-28T06:58:04.275Z,101900.41
2023-02-28T07:00:32.187Z,101900.16
2023-02-28T07:03:00.100Z,101899.91
2023-02-28T07:05:27.967Z,101901.28
2023-02-28T07:07:55.905Z,101899.78
2023-02-28T07:10:23.772Z,101905.47
2023-02-28T07:12:52.483Z,101908.03
2023-02-28T07:15:20.292Z,101918.41
2023-02-28T07:17:48.120Z,101910.03
2023-02-28T07:20:15.990Z,101910.16
2023-02-28T07:22:43.882Z,101911.50
2023-02-28T07:25:11.682Z,101915.19
2023-02-28T07:27:39.494Z,101912.50
2023-02-28T07:30:07.401Z,101916.94
2023-02-28T07:32:38.725Z,101915.06
2023-02-28T07:35:06.516Z,101916.69
2023-02-28T07:37:37.541Z,101912.00
2023-02-28T07:40:07.368Z,101911.25
2023-02-28T07:42:35.298Z,101916.69
2023-02-28T07:45:03.346Z,101925.66
2023-02-28T07:47:31.292Z,101921.84
2023-02-28T07:49:59.384Z,101918.75
2023-02-28T07:52:29.802Z,101920.88
2023-02-28T07:54:57.858Z,101917.06
2023-02-28T07:57:26.673Z,101919.88
2023-02-28T07:59:54.748Z,101919.50
2023-02-28T08:02:22.748Z,101922.34
2023-02-28T08:04:51.432Z,101922.72
2023-02-28T08:07:19.269Z,101927.72
2023-02-28T08:09:47.179Z,101918.50
2023-02-28T08:12:15.898Z,101921.44
2023-02-28T08:14:43.798Z,101920.00
2023-02-28T08:17:11.682Z,101915.94
2023-02-28T08:19:39.576Z,101920.38
2023-02-28T08:22:07.504Z,101915.06
2023-02-28T08:24:35.449Z,101915.44
2023-02-28T08:27:03.270Z,101911.72
2023-02-28T08:29:31.316Z,101911.72
2023-02-28T08:32:00.048Z,101909.97
2023-02-28T08:34:28.075Z,101920.34
2023-02-28T08:36:55.958Z,101918.38
2023-02-28T08:39:23.705Z,101917.41
2023-02-28T08:42:02.179Z,101916.66
2023-02-28T08:44:33.528Z,101915.78
2023-02-28T08:47:01.393Z,101919.38
2023-02-28T08:49:29.753Z,101917.13
2023-02-28T08:51:58.262Z,101920.81
2023-02-28T08:54:26.164Z,101919.22
2023-02-28T08:56:54.096Z,101919.84
2023-02-28T08:59:22.057Z,101924.03
2023-02-28T09:01:49.993Z,101923.31
2023-02-28T09:04:19.932Z,101928.84
2023-02-28T09:06:49.739Z,101932.28
2023-02-28T09:09:17.599Z,101927.72
2023-02-28T09:11:45.472Z,101927.97
2023-02-28T09:14:13.345Z,101923.34
2023-02-28T09:16:41.324Z,101926.91
2023-02-28T09:19:09.395Z,101924.31
2023-02-28T09:21:37.267Z,101928.25
2023-02-28T09:24:05.195Z,101925.91
2023-02-28T09:26:39.061Z,101935.84
2023-02-28T09:29:12.111Z,101932.28
2023-02-28T09:31:39.959Z,101932.66
2023-02-28T09:34:07.967Z,101933.91
2023-02-28T09:36:44.733Z,101932.44
2023-02-28T09:39:13.899Z,101932.81
2023-02-28T09:41:48.601Z,101935.38
2023-02-28T09:44:16.510Z,101929.09
2023-02-28T09:46:44.378Z,101940.78
2023-02-28T09:49:12.176Z,101927.50
2023-02-28T09:51:40.180Z,101938.47
2023-02-28T09:54:08.064Z,101946.34
2023-02-28T09:56:35.993Z,101942.50
2023-02-28T09:59:03.928Z,101936.50
2023-02-28T10:01:32.043Z,101933.41
2023-02-28T10:04:00.158Z,101930.59
2023-02-28T10:06:27.924Z,101925.16
2023-02-28T10:08:55.752Z,101928.97
2023-02-28T10:11:25.051Z,101932.22
2023-02-28T10:13:53.608Z,101935.50
2023-02-28T10:16:21.443Z,101929.94
2023-02-28T10:18:49.276Z,101931.94
2023-02-28T10:21:17.132Z,101927.72
2023-02-28T10:23:46.097Z,101935.75
2023-02-28T10:26:14.080Z,101928.25
2023-02-28T10:28:41.956Z,101933.16
2023-02-28T10:31:09.822Z,101923.56
2023-02-28T10:33:37.684Z,101929.59
2023-02-28T10:36:07.787Z,101923.31
2023-02-28T10:38:35.678Z,101913.94
2023-02-28T10:41:03.518Z,101924.53
2023-02-28T10:43:31.288Z,101918.25
2023-02-28T10:45:59.388Z,101925.19
2023-02-28T10:48:27.216Z,101917.06
2023-02-28T10:50:57.879Z,101911.22
2023-02-28T10:53:26.024Z,101903.00
2023-02-28T10:55:53.889Z,101909.53
2023-02-28T10:58:21.682Z,101904.97
2023-02-28T11:00:49.502Z,101901.88
2023-02-28T11:03:17.393Z,101895.72
2023-02-28T11:05:45.184Z,101895.72
2023-02-28T11:08:13.716Z,101895.97
2023-02-28T11:10:41.550Z,101900.75
2023-02-28T11:13:09.458Z,101894.84
2023-02-28T11:15:37.228Z,101889.28
2023-02-28T11:18:05.021Z,101885.47
2023-02-28T11:20:32.877Z,101887.59
2023-02-28T11:23:00.610Z,101888.44
2023-02-28T11:25:28.400Z,101895.94
2023-02-28T11:27:56.161Z,101891.25
2023-02-28T11:30:23.979Z,101887.31
2023-02-28T11:32:51.846Z,101881.28
2023-02-28T11:35:20.962Z,101882.03
2023-02-28T11:37:48.764Z,101876.25
2023-02-28T11:40:16.682Z,101887.47
2023-02-28T11:42:44.626Z,101895.81
2023-02-28T11:45:12.961Z,101892.25
2023-02-28T11:47:40.818Z,101892.25
2023-02-28T11:50:08.664Z,101892.34
2023-02-28T11:52:36.523Z,101894.09
2023-02-28T11:55:04.375Z,101893.00
2023-02-28T11:57:32.173Z,101892.75
2023-02-28T12:00:02.092Z,101890.88
2023-02-28T12:02:30.265Z,101879.94
2023-02-28T12:04:58.163Z,101885.63
2023-02-28T12:07:27.336Z,101875.25
2023-02-28T12:09:55.175Z,101876.00
2023-02-28T12:12:24.502Z,101867.88
2023-02-28T12:14:53.113Z,101866.63
2023-02-28T12:17:21.217Z,101866.38
2023-02-28T12:19:48.999Z,101860.44
2023-02-28T12:22:16.815Z,101859.59
2023-02-28T12:24:44.642Z,101853.31
2023-02-28T12:27:12.469Z,101860.69
2023-02-28T12:29:40.218Z,101852.94
2023-02-28T12:32:08.201Z,101849.53
2023-02-28T12:34:36.110Z,101844.69
2023-02-28T12:37:04.010Z,101848.63
2023-02-28T12:39:34.437Z,101858.34
2023-02-28T12:42:08.784Z,101844.44
2023-02-28T12:44:36.581Z,101839.00
2023-02-28T12:47:05.804Z,101838.53
2023-02-28T12:49:33.772Z,101832.09
2023-02-28T12:52:01.962Z,101824.22
2023-02-28T12:54:29.822Z,101818.59
2023-02-28T12:56:57.720Z,101821.03
2023-02-28T12:59:25.528Z,101817.31
2023-02-28T13:01:53.279Z,101823.13
2023-02-28T13:04:21.226Z,101820.28
2023-02-28T13:06:49.062Z,101817.59
2023-02-28T13:09:17.001Z,101810.31
2023-02-28T13:11:44.781Z,101808.22
2023-02-28T13:14:12.654Z,101811.91
2023-02-28T13:16:43.289Z,101808.94
2023-02-28T13:19:11.096Z,101799.56
2023-02-28T13:21:38.949Z,101800.78
2023-02-28T13:24:07.179Z,101796.25
2023-02-28T13:26:35.004Z,101807.22
2023-02-28T13:29:02.793Z,101813.66
2023-02-28T13:31:30.904Z,101801.28
2023-02-28T13:33:59.036Z,101803.00
2023-02-28T13:36:26.849Z,101816.56
2023-02-28T13:38:54.863Z,101799.69
2023-02-28T13:41:22.654Z,101802.28
2023-02-28T13:43:50.403Z,101799.56
2023-02-28T13:46:18.176Z,101800.31
2023-02-28T13:48:46.198Z,101796.72
2023-02-28T13:51:13.945Z,101807.44
2023-02-28T13:53:41.732Z,101789.47
2023-02-28T13:56:09.528Z,101797.22
2023-02-28T13:58:37.311Z,101778.34
2023-02-28T14:01:05.593Z,101778.94
2023-02-28T14:03:33.810Z,101791.91
2023-02-28T14:06:01.661Z,101784.63
2023-02-28T14:08:29.484Z,101791.25
2023-02-28T14:10:57.248Z,101781.00
2023-02-28T14:13:25.037Z,101773.28
2023-02-28T14:15:53.292Z,101778.06
2023-02-28T14:18:21.870Z,101768.22
2023-02-28T14:20:49.773Z,101767.44
2023-02-28T14:23:17.530Z,101765.25
2023-02-28T14:25:45.343Z,101766.56
2023-02-28T14:28:13.215Z,101765.38
2023-02-28T14:30:40.934Z,101764.13
2023-02-28T14:33:08.669Z,101769.69
2023-02-28T14:35:36.432Z,101770.94
2023-02-28T14:38:04.197Z,101768.72
2023-02-28T14:40:31.985Z,101766.25
2023-02-28T14:43:00.648Z,101775.56
2023-02-28T14:45:28.447Z,101776.31
2023-02-28T14:47:56.283Z,101771.34
2023-02-28T14:50:24.080Z,101770.16
2023-02-28T14:52:51.927Z,101768.56
2023-02-28T14:55:19.714Z,101761.91
2023-02-28T14:57:47.677Z,101761.56
2023-02-28T15:00:15.451Z,101763.69
2023-02-28T15:02:43.343Z,101761.03
2023-02-28T15:05:13.503Z,101757.16
2023-02-28T15:07:41.297Z,101765.72
2023-02-28T15:10:09.085Z,101754.00
2023-02-28T15:12:36.826Z,101762.75
2023-02-28T15:15:04.666Z,101765.44
2023-02-28T15:17:32.436Z,101749.00
2023-02-28T15:20:00.670Z,101757.84
2023-02-28T15:22:29.998Z,101751.97
2023-02-28T15:24:58.109Z,101757.84
2023-02-28T15:27:25.857Z,101762.53
2023-02-28T15:29:53.607Z,101756.78
2023-02-28T15:32:21.492Z,101756.25
2023-02-28T15:34:49.363Z,101756.28
2023-02-28T15:37:18.241Z,101756.72
2023-02-28T15:39:46.436Z,101754.28
2023-02-28T15:42:14.340Z,101756.56
2023-02-28T15:44:42.109Z,101766.59
2023-02-28T15:47:10.616Z,101765.47
2023-02-28T15:49:44.868Z,101763.03
2023-02-28T15:52:13.181Z,101764.16
2023-02-28T15:54:40.931Z,101772.00
2023-02-28T15:57:09.544Z,101763.41
2023-02-28T15:59:37.375Z,101755.66
2023-02-28T16:02:05.418Z,101764.25
2023-02-28T16:04:33.300Z,101759.22
2023-02-28T16:07:01.293Z,101763.34
2023-02-28T16:09:33.064Z,101759.34
2023-02-28T16:12:02.386Z,101758.47
2023-02-28T16:14:31.190Z,101760.19
2023-02-28T16:16:59.095Z,101758.56
2023-02-28T16:19:27.069Z,101753.88
2023-02-28T16:21:54.828Z,101760.03
2023-02-28T16:24:22.765Z,101757.44
2023-02-28T16:26:50.617Z,101758.28
2023-02-28T16:29:18.315Z,101764.00
2023-02-28T16:31:46.116Z,101768.59
2023-02-28T16:34:14.012Z,101770.00
2023-02-28T16:36:42.092Z,101775.69
2023-02-28T16:39:09.830Z,101770.81
2023-02-28T16:41:37.836Z,101769.69
2023-02-28T16:44:05.657Z,101767.06
2023-02-28T16:46:33.648Z,101774.50
2023-02-28T16:49:01.472Z,101773.16
2023-02-28T16:51:29.572Z,101773.06
2023-02-28T16:53:57.677Z,101773.16
2023-02-28T16:56:25.578Z,101767.56
2023-02-28T16:58:53.416Z,101769.44
2023-02-28T17:01:22.977Z,101779.16
2023-02-28T17:03:50.938Z,101790.50
2023-02-28T17:06:19.003Z,101793.22
2023-02-28T17:08:46.718Z,101792.38
2023-02-28T17:11:14.529Z,101796.25
2023-02-28T17:13:42.458Z,101793.09
2023-02-28T17:16:10.509Z,101806.97
2023-02-28T17:18:39.999Z,101806.13
2023-02-28T17:21:07.772Z,101804.13
2023-02-28T17:23:35.604Z,101807.53
2023-02-28T17:26:03.510Z,101805.84
2023-02-28T17:28:31.249Z,101811.28
2023-02-28T17:30:59.050Z,101808.97
2023-02-28T17:33:26.950Z,101810.25
2023-02-28T17:35:54.814Z,101812.81
2023-02-28T17:38:24.058Z,101811.38
2023-02-28T17:40:52.504Z,101812.94
2023-02-28T17:43:20.321Z,101805.63
2023-02-28T17:45:48.066Z,101815.78
2023-02-28T17:48:16.166Z,101801.34
2023-02-28T17:50:43.940Z,101799.16
2023-02-28T17:53:11.749Z,101795.78
2023-02-28T17:55:39.871Z,101797.09
2023-02-28T17:58:07.652Z,101796.81
2023-02-28T18:00:35.790Z,101800.66
2023-02-28T18:03:03.816Z,101799.66
2023-02-28T18:05:32.218Z,101800.47
2023-02-28T18:07:59.991Z,101798.63
2023-02-28T18:10:28.377Z,101804.59
2023-02-28T18:12:56.320Z,101805.47
2023-02-28T18:15:24.160Z,101802.84
2023-02-28T18:17:51.941Z,101802.84
2023-02-28T18:20:19.675Z,101804.56
2023-02-28T18:22:47.614Z,101801.94
2023-02-28T18:25:17.200Z,101798.75
2023-02-28T18:27:54.244Z,101799.59
2023-02-28T18:30:22.340Z,101802.16
2023-02-28T18:32:50.115Z,101796.44
2023-02-28T18:35:35.095Z,101799.94
2023-02-28T18:38:02.995Z,101804.25
2023-02-28T18:40:30.831Z,101800.41
2023-02-28T18:42:58.615Z,101796.31
2023-02-28T18:45:26.351Z,101793.00
2023-02-28T18:47:54.147Z,101784.63
2023-02-28T18:50:21.915Z,101790.78
2023-02-28T18:52:49.721Z,101777.72
2023-02-28T18:55:19.040Z,101793.50
2023-02-28T18:57:47.010Z,101790.09
2023-02-28T19:00:14.765Z,101796.50
2023-02-28T19:02:43.063Z,101784.53
2023-02-28T19:05:12.254Z,101793.88
2023-02-28T19:07:40.938Z,101792.06
2023-02-28T19:10:08.710Z,101798.56
2023-02-28T19:12:36.562Z,101796.00
2023-02-28T19:15:04.451Z,101793.06
2023-02-28T19:17:32.348Z,101791.97
2023-02-28T19:20:01.474Z,101798.03
2023-02-28T19:22:29.254Z,101791.22
2023-02-28T19:24:57.051Z,101789.06
2023-02-28T19:27:24.847Z,101793.22
2023-02-28T19:29:52.634Z,101803.97
2023-02-28T19:32:20.474Z,101802.69
2023-02-28T19:34:48.324Z,101804.09
2023-02-28T19:37:16.101Z,101807.41
2023-02-28T19:39:43.914Z,101805.84
2023-02-28T19:42:11.703Z,101796.69
2023-02-28T19:44:39.493Z,101801.22
2023-02-28T19:47:07.267Z,101796.38
2023-02-28T19:49:35.010Z,101804.81
2023-02-28T19:52:02.913Z,101809.53
2023-02-28T19:54:30.681Z,101812.53
2023-02-28T19:56:58.683Z,101814.81
2023-02-28T19:59:38.165Z,101812.38
2023-02-28T20:02:06.838Z,101815.25
2023-02-28T20:04:34.707Z,101817.72
2023-02-28T20:07:02.823Z,101821.13
2023-02-28T20:09:30.626Z,101816.69
2023-02-28T20:11:59.523Z,101820.41
2023-02-28T20:14:27.329Z,101811.25
2023-02-28T20:16:57.152Z,101817.94
2023-02-28T20:19:25.944Z,101824.16
2023-02-28T20:21:53.875Z,101816.59
2023-02-28T20:24:25.811Z,101821.16
2023-02-28T20:26:53.642Z,101825.16
2023-02-28T20:29:21.392Z,101828.00
2023-02-28T20:31:49.255Z,101828.56
2023-02-28T20:34:17.840Z,101832.81
2023-02-28T20:36:45.660Z,101833.09
2023-02-28T20:39:13.626Z,101822.34
2023-02-28T20:41:41.360Z,101824.28
2023-02-28T20:44:09.142Z,101826.13
2023-02-28T20:46:36.984Z,101825.53
2023-02-28T20:49:04.761Z,101829.13
2023-02-28T20:51:32.512Z,101828.13
2023-02-28T20:54:00.270Z,101827.66
2023-02-28T20:56:28.378Z,101823.50
2023-02-28T20:58:58.025Z,101823.06
2023-02-28T21:01:26.829Z,101824.31
2023-02-28T21:03:54.756Z,101820.72
2023-02-28T21:06:22.580Z,101818.53
2023-02-28T21:08:50.331Z,101823.72
2023-02-28T21:11:18.127Z,101814.97
2023-02-28T21:13:46.164Z,101812.13
2023-02-28T21:16:14.071Z,101814.69
2023-02-28T21:18:41.922Z,101821.72
2023-02-28T21:21:09.934Z,101807.63
2023-02-28T21:23:37.734Z,101812.91
2023-02-28T21:26:05.657Z,101823.19
2023-02-28T21:28:33.427Z,101819.53
2023-02-28T21:31:01.214Z,101813.34
2023-02-28T21:33:30.358Z,101814.78
2023-02-28T21:35:58.401Z,101818.03
2023-02-28T21:38:26.289Z,101821.88
2023-02-28T21:40:54.102Z,101824.72
2023-02-28T21:43:21.867Z,101826.19
2023-02-28T21:45:49.821Z,101821.72
2023-02-28T21:48:17.683Z,101819.78
2023-02-28T21:50:45.429Z,101819.19
2023-02-28T21:53:13.465Z,101822.88
2023-02-28T21:55:41.298Z,101817.81
2023-02-28T21:58:09.235Z,101824.38
2023-02-28T22:00:37.208Z,101812.78
2023-02-28T22:03:05.725Z,101814.16
2023-02-28T22:05:34.953Z,101804.28
2023-02-28T22:08:02.706Z,101806.69
2023-02-28T22:10:30.534Z,101811.09
2023-02-28T22:13:01.788Z,101807.19
2023-02-28T22:15:29.541Z,101798.94
2023-02-28T22:17:57.294Z,101800.78
2023-02-28T22:20:25.055Z,101805.22
2023-02-28T22:22:52.909Z,101801.66
2023-02-28T22:25:20.666Z,101806.59
2023-02-28T22:27:48.430Z,101810.56
2023-02-28T22:30:16.353Z,101798.34
2023-02-28T22:32:44.100Z,101804.25
2023-02-28T22:35:11.916Z,101804.34
2023-02-28T22:37:39.769Z,101801.06
2023-02-28T22:40:07.491Z,101801.38
2023-02-28T22:42:35.441Z,101808.53
2023-02-28T22:45:03.230Z,101802.88
2023-02-28T22:47:31.039Z,101799.31
2023-02-28T22:49:58.793Z,101805.59
2023-02-28T22:52:26.633Z,101810.44
2023-02-28T22:54:54.713Z,101804.53
2023-02-28T22:57:22.820Z,101804.44
2023-02-28T22:59:50.595Z,101799.06
2023-02-28T23:02:18.469Z,101801.06
2023-02-28T23:04:46.344Z,101802.41
2023-02-28T23:07:14.132Z,101809.22
2023-02-28T23:09:41.922Z,101813.53
2023-02-28T23:12:09.747Z,101820.22
2023-02-28T23:14:37.613Z,101828.94
2023-02-28T23:17:05.920Z,101829.06
2023-02-28T23:19:33.739Z,101835.22
2023-02-28T23:22:01.519Z,101834.25
2023-02-28T23:24:29.300Z,101838.78
2023-02-28T23:26:57.111Z,101839.47
2023-02-28T23:29:25.110Z,101850.91
2023-02-28T23:31:53.051Z,101848.03
2023-02-28T23:34:26.643Z,101856.59
2023-02-28T23:36:54.642Z,101850.53
2023-02-28T23:39:22.495Z,101859.81
2023-02-28T23:41:50.325Z,101845.38
2023-02-28T23:44:18.226Z,101847.59
2023-02-28T23:46:46.054Z,101839.91
2023-02-28T23:49:13.933Z,101842.31
2023-02-28T23:51:41.699Z,101838.84
2023-02-28T23:54:10.098Z,101842.41
2023-02-28T23:56:37.867Z,101835.75
2023-02-28T23:59:06.397Z,101835.88
